sensor_id;sensor_type;location;lat;lon;timestamp;temperature;humidity
8676;DHT22;4375;52.486;13.424;2023-05-07T00:02:24;9.60;99.90
8676;DHT22;4375;52.486;13.424;2023-05-07T00:04:50;9.70;99.90
8676;DHT22;4375;52.486;13.424;2023-05-07T00:07:17;9.60;99.90
8676;DHT22;4375;52.486;13.424;2023-05-07T00:09:43;9.60;99.90
8676;DHT22;4375;52.486;13.424;2023-05-07T00:12:08;9.70;99.90
8676;DHT22;4375;52.486;13.424;2023-05-07T00:14:34;9.60;99.90
8676;DHT22;4375;52.486;13.424;2023-05-07T00:16:59;9.60;99.90
8676;DHT22;4375;52.486;13.424;2023-05-07T00:19:25;9.60;99.90
8676;DHT22;4375;52.486;13.424;2023-05-07T00:21:51;9.60;99.90
8676;DHT22;4375;52.486;13.424;2023-05-07T00:24:19;9.60;99.90
8676;DHT22;4375;52.486;13.424;2023-05-07T00:26:44;9.60;99.90
8676;DHT22;4375;52.486;13.424;2023-05-07T00:29:10;9.50;99.90
8676;DHT22;4375;52.486;13.424;2023-05-07T00:31:36;9.50;99.90
8676;DHT22;4375;52.486;13.424;2023-05-07T00:34:01;9.60;99.90
8676;DHT22;4375;52.486;13.424;2023-05-07T00:36:27;9.70;99.90
8676;DHT22;4375;52.486;13.424;2023-05-07T00:38:54;9.60;99.90
8676;DHT22;4375;52.486;13.424;2023-05-07T00:41:20;9.60;99.90
8676;DHT22;4375;52.486;13.424;2023-05-07T00:43:45;9.60;99.90
8676;DHT22;4375;52.486;13.424;2023-05-07T00:46:11;9.60;99.90
8676;DHT22;4375;52.486;13.424;2023-05-07T00:48:38;9.60;99.90
8676;DHT22;4375;52.486;13.424;2023-05-07T00:51:03;9.50;99.90
8676;DHT22;4375;52.486;13.424;2023-05-07T00:53:30;9.50;99.90
8676;DHT22;4375;52.486;13.424;2023-05-07T00:55:55;9.50;99.90
8676;DHT22;4375;52.486;13.424;2023-05-07T00:58:21;9.50;99.90
8676;DHT22;4375;52.486;13.424;2023-05-07T01:00:47;9.60;99.90
8676;DHT22;4375;52.486;13.424;2023-05-07T01:03:13;9.60;99.90
8676;DHT22;4375;52.486;13.424;2023-05-07T01:05:38;9.60;99.90
8676;DHT22;4375;52.486;13.424;2023-05-07T01:08:05;9.50;99.90
8676;DHT22;4375;52.486;13.424;2023-05-07T01:10:31;9.40;99.90
8676;DHT22;4375;52.486;13.424;2023-05-07T01:12:58;9.40;99.90
8676;DHT22;4375;52.486;13.424;2023-05-07T01:15:24;9.50;99.90
8676;DHT22;4375;52.486;13.424;2023-05-07T01:17:50;9.50;99.90
8676;DHT22;4375;52.486;13.424;2023-05-07T01:20:16;9.50;99.90
8676;DHT22;4375;52.486;13.424;2023-05-07T01:22:43;9.50;99.90
8676;DHT22;4375;52.486;13.424;2023-05-07T01:25:09;9.50;99.90
8676;DHT22;4375;52.486;13.424;2023-05-07T01:27:35;9.40;99.90
8676;DHT22;4375;52.486;13.424;2023-05-07T01:30:05;9.50;99.90
8676;DHT22;4375;52.486;13.424;2023-05-07T01:32:38;9.60;99.90
8676;DHT22;4375;52.486;13.424;2023-05-07T01:35:09;9.60;99.90
8676;DHT22;4375;52.486;13.424;2023-05-07T01:37:35;9.60;99.90
8676;DHT22;4375;52.486;13.424;2023-05-07T01:40:02;9.60;99.90
8676;DHT22;4375;52.486;13.424;2023-05-07T01:42:29;9.60;99.90
8676;DHT22;4375;52.486;13.424;2023-05-07T01:44:55;9.70;99.90
8676;DHT22;4375;52.486;13.424;2023-05-07T01:47:21;9.70;99.90
8676;DHT22;4375;52.486;13.424;2023-05-07T01:49:47;9.60;99.90
8676;DHT22;4375;52.486;13.424;2023-05-07T01:52:12;9.60;99.90
8676;DHT22;4375;52.486;13.424;2023-05-07T01:54:38;9.70;99.90
8676;DHT22;4375;52.486;13.424;2023-05-07T01:57:04;9.60;99.90
8676;DHT22;4375;52.486;13.424;2023-05-07T01:59:29;9.70;99.90
8676;DHT22;4375;52.486;13.424;2023-05-07T02:01:55;9.60;99.90
8676;DHT22;4375;52.486;13.424;2023-05-07T02:04:21;9.50;99.90
8676;DHT22;4375;52.486;13.424;2023-05-07T02:06:46;9.50;99.90
8676;DHT22;4375;52.486;13.424;2023-05-07T02:09:13;9.50;99.90
8676;DHT22;4375;52.486;13.424;2023-05-07T02:11:40;9.50;99.90
8676;DHT22;4375;52.486;13.424;2023-05-07T02:14:05;9.50;99.90
8676;DHT22;4375;52.486;13.424;2023-05-07T02:16:31;9.50;99.90
8676;DHT22;4375;52.486;13.424;2023-05-07T02:18:57;9.50;99.90
8676;DHT22;4375;52.486;13.424;2023-05-07T02:21:24;9.50;99.90
8676;DHT22;4375;52.486;13.424;2023-05-07T02:23:50;9.40;99.90
8676;DHT22;4375;52.486;13.424;2023-05-07T02:26:16;9.40;99.90
8676;DHT22;4375;52.486;13.424;2023-05-07T02:28:41;9.40;99.90
8676;DHT22;4375;52.486;13.424;2023-05-07T02:31:07;9.40;99.90
8676;DHT22;4375;52.486;13.424;2023-05-07T02:33:33;9.60;99.90
8676;DHT22;4375;52.486;13.424;2023-05-07T02:36:09;9.50;99.90
8676;DHT22;4375;52.486;13.424;2023-05-07T02:38:35;9.50;99.90
8676;DHT22;4375;52.486;13.424;2023-05-07T02:41:01;9.50;99.90
8676;DHT22;4375;52.486;13.424;2023-05-07T02:43:26;9.50;99.90
8676;DHT22;4375;52.486;13.424;2023-05-07T02:46:08;9.50;99.90
8676;DHT22;4375;52.486;13.424;2023-05-07T02:48:35;9.50;99.90
8676;DHT22;4375;52.486;13.424;2023-05-07T02:51:01;9.50;99.90
8676;DHT22;4375;52.486;13.424;2023-05-07T02:53:27;9.50;99.90
8676;DHT22;4375;52.486;13.424;2023-05-07T02:55:56;9.50;99.90
8676;DHT22;4375;52.486;13.424;2023-05-07T02:58:22;9.60;99.90
8676;DHT22;4375;52.486;13.424;2023-05-07T03:00:48;9.50;99.90
8676;DHT22;4375;52.486;13.424;2023-05-07T03:03:14;9.40;99.90
8676;DHT22;4375;52.486;13.424;2023-05-07T03:05:40;9.50;99.90
8676;DHT22;4375;52.486;13.424;2023-05-07T03:08:06;9.50;99.90
8676;DHT22;4375;52.486;13.424;2023-05-07T03:10:32;9.50;99.90
8676;DHT22;4375;52.486;13.424;2023-05-07T03:12:58;9.50;99.90
8676;DHT22;4375;52.486;13.424;2023-05-07T03:15:23;9.50;99.90
8676;DHT22;4375;52.486;13.424;2023-05-07T03:17:49;9.50;99.90
8676;DHT22;4375;52.486;13.424;2023-05-07T03:20:15;9.60;99.90
8676;DHT22;4375;52.486;13.424;2023-05-07T03:22:41;9.60;99.90
8676;DHT22;4375;52.486;13.424;2023-05-07T03:25:08;9.60;99.90
8676;DHT22;4375;52.486;13.424;2023-05-07T03:27:33;9.60;99.90
8676;DHT22;4375;52.486;13.424;2023-05-07T03:29:59;9.60;99.90
8676;DHT22;4375;52.486;13.424;2023-05-07T03:32:25;9.60;99.90
8676;DHT22;4375;52.486;13.424;2023-05-07T03:34:51;9.60;99.90
8676;DHT22;4375;52.486;13.424;2023-05-07T03:37:16;9.60;99.90
8676;DHT22;4375;52.486;13.424;2023-05-07T03:39:42;9.60;99.90
8676;DHT22;4375;52.486;13.424;2023-05-07T03:42:08;9.50;99.90
8676;DHT22;4375;52.486;13.424;2023-05-07T03:44:33;9.60;99.90
8676;DHT22;4375;52.486;13.424;2023-05-07T03:46:59;9.50;99.90
8676;DHT22;4375;52.486;13.424;2023-05-07T03:49:24;9.50;99.90
8676;DHT22;4375;52.486;13.424;2023-05-07T03:51:50;9.50;99.90
8676;DHT22;4375;52.486;13.424;2023-05-07T03:54:16;9.50;99.90
8676;DHT22;4375;52.486;13.424;2023-05-07T03:56:41;9.40;99.90
8676;DHT22;4375;52.486;13.424;2023-05-07T03:59:07;9.50;99.90
8676;DHT22;4375;52.486;13.424;2023-05-07T04:01:33;9.50;99.90
8676;DHT22;4375;52.486;13.424;2023-05-07T04:03:58;9.50;99.90
8676;DHT22;4375;52.486;13.424;2023-05-07T04:06:24;9.50;99.90
8676;DHT22;4375;52.486;13.424;2023-05-07T04:08:50;9.40;99.90
8676;DHT22;4375;52.486;13.424;2023-05-07T04:11:15;9.50;99.90
8676;DHT22;4375;52.486;13.424;2023-05-07T04:13:41;9.40;99.90
8676;DHT22;4375;52.486;13.424;2023-05-07T04:16:07;9.40;99.90
8676;DHT22;4375;52.486;13.424;2023-05-07T04:18:33;9.40;99.90
8676;DHT22;4375;52.486;13.424;2023-05-07T04:20:58;9.40;99.90
8676;DHT22;4375;52.486;13.424;2023-05-07T04:23:24;9.40;99.90
8676;DHT22;4375;52.486;13.424;2023-05-07T04:25:50;9.50;99.90
8676;DHT22;4375;52.486;13.424;2023-05-07T04:28:15;9.50;99.90
8676;DHT22;4375;52.486;13.424;2023-05-07T04:30:41;9.50;99.90
8676;DHT22;4375;52.486;13.424;2023-05-07T04:33:07;9.50;99.90
8676;DHT22;4375;52.486;13.424;2023-05-07T04:35:33;9.50;99.90
8676;DHT22;4375;52.486;13.424;2023-05-07T04:37:59;9.50;99.90
8676;DHT22;4375;52.486;13.424;2023-05-07T04:40:25;9.40;99.90
8676;DHT22;4375;52.486;13.424;2023-05-07T04:42:51;9.50;99.90
8676;DHT22;4375;52.486;13.424;2023-05-07T04:45:16;9.50;99.90
8676;DHT22;4375;52.486;13.424;2023-05-07T04:47:42;9.60;99.90
8676;DHT22;4375;52.486;13.424;2023-05-07T04:50:08;9.50;99.90
8676;DHT22;4375;52.486;13.424;2023-05-07T04:52:34;9.60;99.90
8676;DHT22;4375;52.486;13.424;2023-05-07T04:55:00;9.60;99.90
8676;DHT22;4375;52.486;13.424;2023-05-07T04:57:26;9.60;99.90
8676;DHT22;4375;52.486;13.424;2023-05-07T04:59:53;9.60;99.90
8676;DHT22;4375;52.486;13.424;2023-05-07T05:02:19;9.60;99.90
8676;DHT22;4375;52.486;13.424;2023-05-07T05:04:45;9.70;99.90
8676;DHT22;4375;52.486;13.424;2023-05-07T05:07:10;9.70;99.90
8676;DHT22;4375;52.486;13.424;2023-05-07T05:09:36;9.80;99.90
8676;DHT22;4375;52.486;13.424;2023-05-07T05:12:02;9.70;99.90
8676;DHT22;4375;52.486;13.424;2023-05-07T05:14:28;9.90;99.90
8676;DHT22;4375;52.486;13.424;2023-05-07T05:16:53;10.00;99.90
8676;DHT22;4375;52.486;13.424;2023-05-07T05:19:19;9.90;99.90
8676;DHT22;4375;52.486;13.424;2023-05-07T05:21:44;9.90;99.90
8676;DHT22;4375;52.486;13.424;2023-05-07T05:24:10;9.80;99.90
8676;DHT22;4375;52.486;13.424;2023-05-07T05:26:36;9.90;99.90
8676;DHT22;4375;52.486;13.424;2023-05-07T05:29:01;9.90;99.90
8676;DHT22;4375;52.486;13.424;2023-05-07T05:31:27;9.90;99.90
8676;DHT22;4375;52.486;13.424;2023-05-07T05:33:53;9.90;99.90
8676;DHT22;4375;52.486;13.424;2023-05-07T05:36:18;9.90;99.90
8676;DHT22;4375;52.486;13.424;2023-05-07T05:38:44;9.90;99.90
8676;DHT22;4375;52.486;13.424;2023-05-07T05:41:10;9.90;99.90
8676;DHT22;4375;52.486;13.424;2023-05-07T05:43:36;9.90;99.90
8676;DHT22;4375;52.486;13.424;2023-05-07T05:46:01;9.90;99.90
8676;DHT22;4375;52.486;13.424;2023-05-07T05:48:29;9.90;99.90
8676;DHT22;4375;52.486;13.424;2023-05-07T05:50:54;9.90;99.90
8676;DHT22;4375;52.486;13.424;2023-05-07T05:53:20;10.10;99.90
8676;DHT22;4375;52.486;13.424;2023-05-07T05:55:46;10.20;99.90
8676;DHT22;4375;52.486;13.424;2023-05-07T05:58:12;10.30;99.90
8676;DHT22;4375;52.486;13.424;2023-05-07T06:00:37;10.20;99.90
8676;DHT22;4375;52.486;13.424;2023-05-07T06:03:03;10.30;99.90
8676;DHT22;4375;52.486;13.424;2023-05-07T06:05:29;10.30;99.90
8676;DHT22;4375;52.486;13.424;2023-05-07T06:07:54;10.50;99.90
8676;DHT22;4375;52.486;13.424;2023-05-07T06:10:20;10.40;99.90
8676;DHT22;4375;52.486;13.424;2023-05-07T06:12:46;10.50;99.90
8676;DHT22;4375;52.486;13.424;2023-05-07T06:15:11;10.50;99.90
8676;DHT22;4375;52.486;13.424;2023-05-07T06:17:37;10.40;99.90
8676;DHT22;4375;52.486;13.424;2023-05-07T06:20:03;10.40;99.90
8676;DHT22;4375;52.486;13.424;2023-05-07T06:22:29;10.70;99.90
8676;DHT22;4375;52.486;13.424;2023-05-07T06:24:54;10.60;99.90
8676;DHT22;4375;52.486;13.424;2023-05-07T06:27:20;10.70;99.90
8676;DHT22;4375;52.486;13.424;2023-05-07T06:29:48;10.80;99.90
8676;DHT22;4375;52.486;13.424;2023-05-07T06:32:14;10.90;99.90
8676;DHT22;4375;52.486;13.424;2023-05-07T06:34:40;10.90;99.90
8676;DHT22;4375;52.486;13.424;2023-05-07T06:37:06;11.00;99.90
8676;DHT22;4375;52.486;13.424;2023-05-07T06:39:32;10.80;99.90
8676;DHT22;4375;52.486;13.424;2023-05-07T06:41:59;10.80;99.90
8676;DHT22;4375;52.486;13.424;2023-05-07T06:44:25;10.80;99.90
8676;DHT22;4375;52.486;13.424;2023-05-07T06:46:51;10.80;99.90
8676;DHT22;4375;52.486;13.424;2023-05-07T06:49:16;11.00;99.90
8676;DHT22;4375;52.486;13.424;2023-05-07T06:51:42;11.00;99.90
8676;DHT22;4375;52.486;13.424;2023-05-07T06:54:08;11.10;99.90
8676;DHT22;4375;52.486;13.424;2023-05-07T06:56:36;11.30;99.90
8676;DHT22;4375;52.486;13.424;2023-05-07T06:59:03;11.30;99.90
8676;DHT22;4375;52.486;13.424;2023-05-07T07:01:29;11.40;99.90
8676;DHT22;4375;52.486;13.424;2023-05-07T07:03:55;11.50;99.90
8676;DHT22;4375;52.486;13.424;2023-05-07T07:06:20;11.70;99.90
8676;DHT22;4375;52.486;13.424;2023-05-07T07:08:46;11.50;99.90
8676;DHT22;4375;52.486;13.424;2023-05-07T07:11:12;11.50;99.90
8676;DHT22;4375;52.486;13.424;2023-05-07T07:13:37;11.60;99.90
8676;DHT22;4375;52.486;13.424;2023-05-07T07:16:03;11.50;99.90
8676;DHT22;4375;52.486;13.424;2023-05-07T07:18:29;11.50;99.90
8676;DHT22;4375;52.486;13.424;2023-05-07T07:20:55;11.60;99.90
8676;DHT22;4375;52.486;13.424;2023-05-07T07:23:21;11.60;99.90
8676;DHT22;4375;52.486;13.424;2023-05-07T07:25:47;11.40;99.90
8676;DHT22;4375;52.486;13.424;2023-05-07T07:28:12;11.60;99.90
8676;DHT22;4375;52.486;13.424;2023-05-07T07:30:39;11.90;99.90
8676;DHT22;4375;52.486;13.424;2023-05-07T07:33:05;12.10;99.90
8676;DHT22;4375;52.486;13.424;2023-05-07T07:35:34;12.30;99.90
8676;DHT22;4375;52.486;13.424;2023-05-07T07:38:00;12.30;99.90
8676;DHT22;4375;52.486;13.424;2023-05-07T07:40:27;12.30;99.90
8676;DHT22;4375;52.486;13.424;2023-05-07T07:42:53;12.90;99.90
8676;DHT22;4375;52.486;13.424;2023-05-07T07:45:20;14.70;99.90
8676;DHT22;4375;52.486;13.424;2023-05-07T07:47:45;16.50;99.90
8676;DHT22;4375;52.486;13.424;2023-05-07T07:50:11;17.70;99.90
8676;DHT22;4375;52.486;13.424;2023-05-07T07:52:37;18.10;99.90
8676;DHT22;4375;52.486;13.424;2023-05-07T07:55:03;19.50;99.90
8676;DHT22;4375;52.486;13.424;2023-05-07T07:57:30;19.80;99.90
8676;DHT22;4375;52.486;13.424;2023-05-07T07:59:55;19.80;99.90
8676;DHT22;4375;52.486;13.424;2023-05-07T08:02:21;19.10;99.90
8676;DHT22;4375;52.486;13.424;2023-05-07T08:04:47;18.80;99.90
8676;DHT22;4375;52.486;13.424;2023-05-07T08:07:12;17.90;99.90
8676;DHT22;4375;52.486;13.424;2023-05-07T08:09:39;18.90;99.90
8676;DHT22;4375;52.486;13.424;2023-05-07T08:12:08;19.90;99.90
8676;DHT22;4375;52.486;13.424;2023-05-07T08:14:34;19.50;99.90
8676;DHT22;4375;52.486;13.424;2023-05-07T08:17:00;19.00;99.90
8676;DHT22;4375;52.486;13.424;2023-05-07T08:19:26;19.60;99.90
8676;DHT22;4375;52.486;13.424;2023-05-07T08:21:51;20.00;99.90
8676;DHT22;4375;52.486;13.424;2023-05-07T08:24:17;21.00;99.90
8676;DHT22;4375;52.486;13.424;2023-05-07T08:26:44;21.20;99.90
8676;DHT22;4375;52.486;13.424;2023-05-07T08:29:10;21.90;99.90
8676;DHT22;4375;52.486;13.424;2023-05-07T08:31:36;22.40;99.90
8676;DHT22;4375;52.486;13.424;2023-05-07T08:34:02;21.30;99.90
8676;DHT22;4375;52.486;13.424;2023-05-07T08:36:28;20.40;99.90
8676;DHT22;4375;52.486;13.424;2023-05-07T08:38:54;21.60;99.90
8676;DHT22;4375;52.486;13.424;2023-05-07T08:41:20;21.70;99.90
8676;DHT22;4375;52.486;13.424;2023-05-07T08:43:50;21.10;99.90
8676;DHT22;4375;52.486;13.424;2023-05-07T08:46:22;20.10;99.90
8676;DHT22;4375;52.486;13.424;2023-05-07T08:48:48;18.20;99.90
8676;DHT22;4375;52.486;13.424;2023-05-07T08:51:17;18.50;99.90
8676;DHT22;4375;52.486;13.424;2023-05-07T08:53:44;18.50;99.90
8676;DHT22;4375;52.486;13.424;2023-05-07T08:56:10;18.90;99.90
8676;DHT22;4375;52.486;13.424;2023-05-07T08:58:36;19.70;99.90
8676;DHT22;4375;52.486;13.424;2023-05-07T09:01:10;19.10;99.90
8676;DHT22;4375;52.486;13.424;2023-05-07T09:03:38;18.60;99.90
8676;DHT22;4375;52.486;13.424;2023-05-07T09:06:04;19.10;99.90
8676;DHT22;4375;52.486;13.424;2023-05-07T09:08:32;19.30;99.90
8676;DHT22;4375;52.486;13.424;2023-05-07T09:10:58;18.50;99.90
8676;DHT22;4375;52.486;13.424;2023-05-07T09:13:24;17.70;99.90
8676;DHT22;4375;52.486;13.424;2023-05-07T09:15:50;17.10;99.90
8676;DHT22;4375;52.486;13.424;2023-05-07T09:18:15;17.00;99.90
8676;DHT22;4375;52.486;13.424;2023-05-07T09:20:41;16.70;99.90
8676;DHT22;4375;52.486;13.424;2023-05-07T09:23:07;17.50;99.90
8676;DHT22;4375;52.486;13.424;2023-05-07T09:25:34;17.90;99.90
8676;DHT22;4375;52.486;13.424;2023-05-07T09:28:01;17.20;99.90
8676;DHT22;4375;52.486;13.424;2023-05-07T09:30:28;16.80;99.90
8676;DHT22;4375;52.486;13.424;2023-05-07T09:32:54;16.00;99.90
8676;DHT22;4375;52.486;13.424;2023-05-07T09:35:20;15.50;99.90
8676;DHT22;4375;52.486;13.424;2023-05-07T09:37:47;15.90;99.90
8676;DHT22;4375;52.486;13.424;2023-05-07T09:40:26;16.00;99.90
8676;DHT22;4375;52.486;13.424;2023-05-07T09:42:53;16.10;99.90
8676;DHT22;4375;52.486;13.424;2023-05-07T09:45:28;16.10;99.90
8676;DHT22;4375;52.486;13.424;2023-05-07T09:47:56;16.30;99.90
8676;DHT22;4375;52.486;13.424;2023-05-07T09:50:29;16.50;99.90
8676;DHT22;4375;52.486;13.424;2023-05-07T09:52:58;16.00;99.90
8676;DHT22;4375;52.486;13.424;2023-05-07T09:55:25;16.00;99.90
8676;DHT22;4375;52.486;13.424;2023-05-07T09:57:52;15.90;99.90
8676;DHT22;4375;52.486;13.424;2023-05-07T10:00:22;16.10;99.90
8676;DHT22;4375;52.486;13.424;2023-05-07T10:02:49;15.60;99.90
8676;DHT22;4375;52.486;13.424;2023-05-07T10:05:21;15.50;99.90
8676;DHT22;4375;52.486;13.424;2023-05-07T10:07:47;15.50;99.90
8676;DHT22;4375;52.486;13.424;2023-05-07T10:10:14;15.30;99.90
8676;DHT22;4375;52.486;13.424;2023-05-07T10:12:41;15.20;99.90
8676;DHT22;4375;52.486;13.424;2023-05-07T10:15:07;15.10;99.90
8676;DHT22;4375;52.486;13.424;2023-05-07T10:17:37;15.20;99.90
8676;DHT22;4375;52.486;13.424;2023-05-07T10:20:04;15.40;99.90
8676;DHT22;4375;52.486;13.424;2023-05-07T10:22:38;15.70;99.90
8676;DHT22;4375;52.486;13.424;2023-05-07T10:25:09;15.70;99.90
8676;DHT22;4375;52.486;13.424;2023-05-07T10:27:40;15.40;99.90
8676;DHT22;4375;52.486;13.424;2023-05-07T10:32:49;15.00;99.90
8676;DHT22;4375;52.486;13.424;2023-05-07T10:35:22;15.30;99.90
8676;DHT22;4375;52.486;13.424;2023-05-07T10:37:50;15.50;99.90
8676;DHT22;4375;52.486;13.424;2023-05-07T10:40:16;15.90;99.90
8676;DHT22;4375;52.486;13.424;2023-05-07T10:43:00;15.80;99.90
8676;DHT22;4375;52.486;13.424;2023-05-07T10:45:27;16.10;99.90
8676;DHT22;4375;52.486;13.424;2023-05-07T10:48:12;16.20;99.90
8676;DHT22;4375;52.486;13.424;2023-05-07T10:50:39;16.20;99.90
8676;DHT22;4375;52.486;13.424;2023-05-07T10:55:46;16.10;99.90
8676;DHT22;4375;52.486;13.424;2023-05-07T10:58:26;15.80;99.90
8676;DHT22;4375;52.486;13.424;2023-05-07T11:01:00;15.70;99.90
8676;DHT22;4375;52.486;13.424;2023-05-07T11:03:27;15.80;99.90
8676;DHT22;4375;52.486;13.424;2023-05-07T11:08:55;16.30;99.90
8676;DHT22;4375;52.486;13.424;2023-05-07T11:11:49;16.20;99.90
8676;DHT22;4375;52.486;13.424;2023-05-07T11:17:07;16.00;99.90
8676;DHT22;4375;52.486;13.424;2023-05-07T11:19:52;15.90;99.90
8676;DHT22;4375;52.486;13.424;2023-05-07T11:24:56;15.90;99.90
8676;DHT22;4375;52.486;13.424;2023-05-07T11:27:26;16.00;99.90
8676;DHT22;4375;52.486;13.424;2023-05-07T11:29:52;15.90;99.90
8676;DHT22;4375;52.486;13.424;2023-05-07T11:34:54;15.90;99.90
8676;DHT22;4375;52.486;13.424;2023-05-07T11:37:21;15.90;99.90
8676;DHT22;4375;52.486;13.424;2023-05-07T11:39:47;16.10;99.90
8676;DHT22;4375;52.486;13.424;2023-05-07T11:44:52;16.20;99.90
8676;DHT22;4375;52.486;13.424;2023-05-07T11:47:18;16.20;99.90
8676;DHT22;4375;52.486;13.424;2023-05-07T11:49:47;16.10;99.90
8676;DHT22;4375;52.486;13.424;2023-05-07T11:52:14;15.90;99.90
8676;DHT22;4375;52.486;13.424;2023-05-07T11:54:39;15.80;99.90
8676;DHT22;4375;52.486;13.424;2023-05-07T11:57:05;16.00;99.90
8676;DHT22;4375;52.486;13.424;2023-05-07T11:59:39;16.00;99.90
8676;DHT22;4375;52.486;13.424;2023-05-07T12:02:09;16.30;99.90
8676;DHT22;4375;52.486;13.424;2023-05-07T12:04:35;16.40;99.90
8676;DHT22;4375;52.486;13.424;2023-05-07T12:07:03;16.50;99.90
8676;DHT22;4375;52.486;13.424;2023-05-07T12:09:28;16.60;99.90
8676;DHT22;4375;52.486;13.424;2023-05-07T12:11:55;16.60;99.90
8676;DHT22;4375;52.486;13.424;2023-05-07T12:14:21;16.80;99.90
8676;DHT22;4375;52.486;13.424;2023-05-07T12:16:47;16.60;99.90
8676;DHT22;4375;52.486;13.424;2023-05-07T12:19:13;16.60;99.90
8676;DHT22;4375;52.486;13.424;2023-05-07T12:21:40;16.30;99.90
8676;DHT22;4375;52.486;13.424;2023-05-07T12:24:07;16.20;99.90
8676;DHT22;4375;52.486;13.424;2023-05-07T12:26:37;15.80;99.90
8676;DHT22;4375;52.486;13.424;2023-05-07T12:29:03;15.70;99.90
8676;DHT22;4375;52.486;13.424;2023-05-07T12:31:29;15.90;99.90
8676;DHT22;4375;52.486;13.424;2023-05-07T12:33:55;16.10;99.90
8676;DHT22;4375;52.486;13.424;2023-05-07T12:36:21;16.10;99.90
8676;DHT22;4375;52.486;13.424;2023-05-07T12:38:49;16.20;99.90
8676;DHT22;4375;52.486;13.424;2023-05-07T12:41:15;16.30;99.90
8676;DHT22;4375;52.486;13.424;2023-05-07T12:43:44;16.30;99.90
8676;DHT22;4375;52.486;13.424;2023-05-07T12:46:10;16.50;99.90
8676;DHT22;4375;52.486;13.424;2023-05-07T12:48:43;16.50;99.90
8676;DHT22;4375;52.486;13.424;2023-05-07T12:51:09;16.60;99.90
8676;DHT22;4375;52.486;13.424;2023-05-07T12:53:40;16.40;99.90
8676;DHT22;4375;52.486;13.424;2023-05-07T12:56:09;16.20;99.90
8676;DHT22;4375;52.486;13.424;2023-05-07T12:58:35;16.30;99.90
8676;DHT22;4375;52.486;13.424;2023-05-07T13:01:04;16.30;99.90
8676;DHT22;4375;52.486;13.424;2023-05-07T13:03:32;16.30;99.90
8676;DHT22;4375;52.486;13.424;2023-05-07T13:06:01;16.20;99.90
8676;DHT22;4375;52.486;13.424;2023-05-07T13:08:47;16.30;99.90
8676;DHT22;4375;52.486;13.424;2023-05-07T13:11:13;16.20;99.90
8676;DHT22;4375;52.486;13.424;2023-05-07T13:13:41;16.00;99.90
8676;DHT22;4375;52.486;13.424;2023-05-07T13:16:08;16.10;99.90
8676;DHT22;4375;52.486;13.424;2023-05-07T13:18:34;15.90;99.90
8676;DHT22;4375;52.486;13.424;2023-05-07T13:21:00;16.00;99.90
8676;DHT22;4375;52.486;13.424;2023-05-07T13:23:27;16.00;99.90
8676;DHT22;4375;52.486;13.424;2023-05-07T13:25:53;16.00;99.90
8676;DHT22;4375;52.486;13.424;2023-05-07T13:28:24;15.90;99.90
8676;DHT22;4375;52.486;13.424;2023-05-07T13:30:50;15.90;99.90
8676;DHT22;4375;52.486;13.424;2023-05-07T13:33:17;15.90;99.90
8676;DHT22;4375;52.486;13.424;2023-05-07T13:35:43;15.80;99.90
8676;DHT22;4375;52.486;13.424;2023-05-07T13:38:08;15.60;99.90
8676;DHT22;4375;52.486;13.424;2023-05-07T13:40:34;15.70;99.90
8676;DHT22;4375;52.486;13.424;2023-05-07T13:43:00;15.80;99.90
8676;DHT22;4375;52.486;13.424;2023-05-07T13:45:28;16.00;99.90
8676;DHT22;4375;52.486;13.424;2023-05-07T13:47:55;15.90;99.90
8676;DHT22;4375;52.486;13.424;2023-05-07T13:50:21;16.00;99.90
8676;DHT22;4375;52.486;13.424;2023-05-07T13:52:47;16.10;99.90
8676;DHT22;4375;52.486;13.424;2023-05-07T13:55:20;15.90;99.90
8676;DHT22;4375;52.486;13.424;2023-05-07T13:57:46;15.70;99.90
8676;DHT22;4375;52.486;13.424;2023-05-07T14:00:13;15.80;99.90
8676;DHT22;4375;52.486;13.424;2023-05-07T14:02:39;15.80;99.90
8676;DHT22;4375;52.486;13.424;2023-05-07T14:05:05;16.00;99.90
8676;DHT22;4375;52.486;13.424;2023-05-07T14:07:31;16.10;99.90
8676;DHT22;4375;52.486;13.424;2023-05-07T14:09:57;16.20;99.90
8676;DHT22;4375;52.486;13.424;2023-05-07T14:12:22;16.20;99.90
8676;DHT22;4375;52.486;13.424;2023-05-07T14:14:48;16.30;99.90
8676;DHT22;4375;52.486;13.424;2023-05-07T14:17:16;16.40;99.90
8676;DHT22;4375;52.486;13.424;2023-05-07T14:19:42;16.40;99.90
8676;DHT22;4375;52.486;13.424;2023-05-07T14:22:08;16.40;99.90
8676;DHT22;4375;52.486;13.424;2023-05-07T14:24:33;16.50;99.90
8676;DHT22;4375;52.486;13.424;2023-05-07T14:26:59;16.80;99.90
8676;DHT22;4375;52.486;13.424;2023-05-07T14:29:25;16.80;99.90
8676;DHT22;4375;52.486;13.424;2023-05-07T14:31:51;16.60;99.90
8676;DHT22;4375;52.486;13.424;2023-05-07T14:34:16;16.80;99.90
8676;DHT22;4375;52.486;13.424;2023-05-07T14:36:42;16.50;99.90
8676;DHT22;4375;52.486;13.424;2023-05-07T14:39:09;16.60;99.90
8676;DHT22;4375;52.486;13.424;2023-05-07T14:41:35;16.70;99.90
8676;DHT22;4375;52.486;13.424;2023-05-07T14:44:00;17.00;99.90
8676;DHT22;4375;52.486;13.424;2023-05-07T14:46:29;17.20;99.90
8676;DHT22;4375;52.486;13.424;2023-05-07T14:48:56;17.10;99.90
8676;DHT22;4375;52.486;13.424;2023-05-07T14:51:22;17.10;99.90
8676;DHT22;4375;52.486;13.424;2023-05-07T14:53:47;17.10;99.90
8676;DHT22;4375;52.486;13.424;2023-05-07T14:56:13;16.80;99.90
8676;DHT22;4375;52.486;13.424;2023-05-07T14:58:39;16.60;99.90
8676;DHT22;4375;52.486;13.424;2023-05-07T15:01:04;16.40;99.90
8676;DHT22;4375;52.486;13.424;2023-05-07T15:03:30;16.40;99.90
8676;DHT22;4375;52.486;13.424;2023-05-07T15:05:56;16.50;99.90
8676;DHT22;4375;52.486;13.424;2023-05-07T15:08:22;16.40;99.90
8676;DHT22;4375;52.486;13.424;2023-05-07T15:10:48;16.40;99.90
8676;DHT22;4375;52.486;13.424;2023-05-07T15:13:13;16.50;99.90
8676;DHT22;4375;52.486;13.424;2023-05-07T15:15:39;16.50;99.90
8676;DHT22;4375;52.486;13.424;2023-05-07T15:18:05;16.50;99.90
8676;DHT22;4375;52.486;13.424;2023-05-07T15:20:30;16.40;99.90
8676;DHT22;4375;52.486;13.424;2023-05-07T15:22:56;16.40;99.90
8676;DHT22;4375;52.486;13.424;2023-05-07T15:25:22;16.40;99.90
8676;DHT22;4375;52.486;13.424;2023-05-07T15:27:48;16.30;99.90
8676;DHT22;4375;52.486;13.424;2023-05-07T15:30:14;16.10;99.90
8676;DHT22;4375;52.486;13.424;2023-05-07T15:32:41;16.10;99.90
8676;DHT22;4375;52.486;13.424;2023-05-07T15:35:07;16.10;99.90
8676;DHT22;4375;52.486;13.424;2023-05-07T15:37:33;16.10;99.90
8676;DHT22;4375;52.486;13.424;2023-05-07T15:39:59;16.10;99.90
8676;DHT22;4375;52.486;13.424;2023-05-07T15:42:27;16.10;99.90
8676;DHT22;4375;52.486;13.424;2023-05-07T15:44:53;16.30;99.90
8676;DHT22;4375;52.486;13.424;2023-05-07T15:47:19;16.20;99.90
8676;DHT22;4375;52.486;13.424;2023-05-07T15:49:47;16.20;99.90
8676;DHT22;4375;52.486;13.424;2023-05-07T15:52:13;16.00;99.90
8676;DHT22;4375;52.486;13.424;2023-05-07T15:54:40;16.00;99.90
8676;DHT22;4375;52.486;13.424;2023-05-07T15:57:08;16.00;99.90
8676;DHT22;4375;52.486;13.424;2023-05-07T15:59:34;15.90;99.90
8676;DHT22;4375;52.486;13.424;2023-05-07T16:02:03;15.90;99.90
8676;DHT22;4375;52.486;13.424;2023-05-07T16:04:29;15.60;99.90
8676;DHT22;4375;52.486;13.424;2023-05-07T16:06:54;15.50;99.90
8676;DHT22;4375;52.486;13.424;2023-05-07T16:09:21;15.30;99.90